Go Pro

Vanguard High Dividend Yield ETF (VYM) Institutional Ownership

Vanguard High Dividend Yield ETF logo
$164.23 -0.66 (-0.40%)
As of 09/4/2026 04:10 PM Eastern

Institutional Ownership Changes (13F Filings) for Vanguard High Dividend Yield ETF (NYSEARCA:VYM)

Number of
Institutional Buyers
(last 12 months)
1285
Total
Institutional Inflows
(last 12 months)
$24.43B
Number of
Institutional Sellers
(last 12 months)
864
Total
Institutional Outflows
(last 12 months)
$3.10B
Get VYM Insider Trade Alerts

Want to know when executives and insiders are buying or selling Vanguard High Dividend Yield ETF stock? Sign up for InsiderTrades.com's daily newsletter to get the latest insider transactions delivered to your inbox daily.

SMS is currently available in Australia, Belgium, Canada, France, Germany, Ireland, Italy, New Zealand, the Netherlands, Singapore, South Africa, Spain, Switzerland, the United Kingdom, and the United States. By entering your phone number and clicking the sign-up button, you agree to receive periodic text messages from MarketBeat at the phone number you submitted, including texts that may be sent using an automatic telephone dialing system. Message and data rates may apply. Message frequency will vary. Messages will consist of stock alerts, news stories, and partner advertisements/offers. Consent is not a condition of the purchase of any goods or services. Text HELP for help/customer support. Unsubscribe at any time by replying "STOP" to any text message that you receive from MarketBeat or by visiting our mailing preferences page. Read our full terms of service and privacy policy.
Skip Chart & View Institutional Buying and Selling Data

VYM Institutional Buying and Selling by Quarter

Vanguard High Dividend Yield ETF Major Shareholders & Ownership History

Reporting DateMajor Shareholder NameShares HeldMarket Value% of PortfolioQuarterly Change in SharesOwnership in CompanyDetails
9/4/2026 Parkside Financial Bank & Trust37,103$5.86M0.4%+1.5%0.007%
9/2/2026 Second Line Capital LLC1,937$306K0.1%+6.0%0.000%
9/2/2026 Kinetic Wealth Investment Advisors LLC3,036$480K0.2%N/A0.001%
9/2/2026 Range Advisory LLC9,461$1.50M0.2%+11.7%0.002%
8/28/2026 Cornerstone Financial Management LLC8,353$1.32M1.1%-3.4%0.002%
8/27/2026 Corient Private Wealth LP701,058$110.79M0.2%-3.1%0.140%
8/27/2026 Tucker Asset Management LLC1,952$308K0.1%-6.0%0.000%
8/26/2026 Principia Wealth Advisory LLC2,635$416K0.1%-2.4%0.001%
8/26/2026 HighTower Advisors LLC1,466,544$231.76M0.2%+0.8%0.293%
8/25/2026 Advus Financial Partners LLC2,227$352K0.1%-4.2%0.000%
8/25/2026 Kirkwood Financial Services3,137$496K0.1%N/A0.001%
8/25/2026 Kingsbury Capital Investment Advisors LLC9,070$1.43M1.2%+18.4%0.002%
8/23/2026 Tanager Wealth Management LLP2,884$456K0.0%+65.4%0.001%
8/23/2026 Washington Trust Advisors Inc.275$43K0.0%-38.5%0.000%
8/23/2026 Ameritas Advisory Services LLC103,604$16.37M0.3%+65.5%0.021%
8/23/2026 Wedmont Private Capital32,269$5.20M0.1%+6.9%0.006%
8/23/2026 Kintra Wealth LLC6,816$1.14M0.1%-1.7%0.001%
8/23/2026 Anson Capital Inc.5,906$933K0.6%-1.2%0.001%
8/23/2026 Aspire Capital Advisors LLC64,909$10.26M2.0%+28.5%0.013%
8/23/2026 Endeavor Private Wealth Inc.1,661$262K0.1%+4.1%0.000%
8/23/2026 Yarger Wealth Strategies LLC76,504$12.32M4.4%+3.0%0.015%
8/23/2026 Operose Advisors LLC323,133$51.06M9.9%-1.3%0.065%
8/23/2026 HB Wealth Management LLC92,432$14.61M0.1%+5.1%0.018%
8/23/2026 Nilsine Partners LLC10,137$1.60M0.1%-8.6%0.002%
8/23/2026 Hutchens & Kramer Investment Management Group LLC1,277$202K0.1%N/A0.000%
8/23/2026 Asset Allocation Strategies LLC104,832$16.57M2.5%+7.1%0.021%
8/23/2026 Angeles Wealth Management LLC122,945$19.43M0.7%-0.1%0.025%
8/23/2026 Highland Financial Advisors LLC9,138$1.44M0.3%-3.0%0.002%
8/22/2026 Noble Wealth Partners LLC23,349$3.69M3.2%N/A0.005%
8/22/2026 Advisory Solutions Group LLC1,371$217K0.1%N/A0.000%
8/22/2026 Schuylkill Financial LLC24,636$3.89M3.6%N/A0.005%
8/22/2026 MW Advisory LLC11,462$1.81M0.7%N/A0.002%
8/22/2026 Maloon Powers Pitre Higgins & Dennehy LLC51,857$8.20M2.8%N/A0.010%
8/22/2026 Markowski Investments144,471$22.83M5.0%N/A0.029%
8/22/2026 Old Mission Investment Co LLC6,381$1.01M0.2%N/A0.001%
8/22/2026 Highland Investment Advisors LLC203$32K0.0%N/A0.000%
8/22/2026 Timbuktu Capital Management LLC2,379$376K0.6%N/A0.000%
8/22/2026 Strive Financial Group LLC1,676$265K0.1%+29.1%0.000%
8/22/2026 Invested Advisors3,589$567K0.5%-16.9%0.001%
8/22/2026 BAM Wealth Management LLC2,022$320K0.2%+9.0%0.000%
The $15 Gold Fund That Pays Up to $1,152/Month (Ad)

Gold is hitting record highs, but most investors are leaving income on the table. A $15 fund is quietly paying out up to $1,152 a month to regular investors - no mining stocks, no options, no physical metal required. Chief Income Strategist Tim Plaehn calls it a breakthrough strategy that transforms gold's rally into reliable monthly payouts. The next distribution is just days away.tc pixel

Discover the gold income fund before the next payout date
8/22/2026 Investor s Fiduciary Advisor Network LLC34,378$5.43M1.9%-3.2%0.007%
8/22/2026 Tudor Financial Inc.3,326$526K0.2%+180.7%0.001%
8/22/2026 ZEGA Investments LLC1,703$269K0.0%-25.8%0.000%
8/22/2026 NWF Advisory Services Inc.10,049$1.59M0.1%-4.9%0.002%
8/22/2026 TD Waterhouse Canada Inc.15,076$2.39M0.0%+0.6%0.003%
8/22/2026 Premier Path Wealth Partners LLC2,780$439K0.1%-7.6%0.001%
8/22/2026 United Community Bank26,058$4.12M1.3%+30.0%0.005%
8/22/2026 Concurrent Investment Advisors LLC166,859$26.37M0.2%+2.0%0.033%
8/21/2026 Montz Harcus Wealth Management LLC68,544$10.83M3.6%+2.2%0.014%
8/21/2026 High Net Worth Advisory Group LLC104,430$16.50M3.5%+0.4%0.021%
8/21/2026 Orion Capital Management LLC23,780$3.76M1.2%-1.3%0.005%
8/21/2026 Round Rock Advisors LLC324,884$51.34M6.6%+3.8%0.065%
8/21/2026 MBA Advisors LLC7,682$1.21M0.4%-3.3%0.002%
8/21/2026 PFG Private Wealth Management LLC81,983$12.96M5.5%-11.1%0.016%
8/21/2026 Atticus Wealth Management LLC30,501$4.82M1.2%-1.1%0.006%
8/21/2026 XML Financial LLC60,858$9.62M0.7%-2.1%0.012%
8/21/2026 Beacon Financial Advisory LLC12,530$1.98M0.4%-8.4%0.003%
8/21/2026 KFA Private Wealth Group LLC4,801$759K0.2%-51.7%0.001%
8/21/2026 Briaud Financial Planning Inc7,074$1.12M0.3%+10.0%0.001%
8/21/2026 Symphony Financial Ltd. Co.2,935$464K0.1%N/A0.001%
8/21/2026 Independence Bank of Kentucky40,656$6.43M0.7%-1.4%0.008%
8/21/2026 Bedel Financial Consulting Inc.1,824$288K0.0%N/A0.000%
8/21/2026 Acorn Wealth Advisors LLC2,510$397K0.1%+9.4%0.001%
8/20/2026 First PREMIER Bank93,274$14.74M2.1%+115.6%0.019%
8/20/2026 Cooper Haims Advisors LLC2,392$378K0.2%N/A0.000%
8/20/2026 Nwam LLC85,738$13.55M0.7%-2.3%0.017%
8/20/2026 Piedmont Capital Management LLC164,700$26.07M13.3%+0.5%0.033%
8/20/2026 Gill Capital Partners LLC597$94K0.0%+20.1%0.000%
8/20/2026 Jackson Wealth Management LLC1,948$308K0.2%-92.0%0.000%
8/20/2026 Rehmann Capital Advisory Group35,849$5.67M0.2%+0.9%0.007%
8/20/2026 Orgel Wealth Management LLC1,499$237K0.0%N/A0.000%
8/20/2026 Covington Investment Advisors Inc.55,224$8.73M1.1%-5.2%0.011%
8/20/2026 Ancora Advisors LLC16,971$2.68M0.1%-4.0%0.003%
8/20/2026 Sigma Planning Corp29,969$4.74M0.1%+10.9%0.006%
8/20/2026 Benjamin Edwards Inc.54,936$8.68M0.1%+10.6%0.011%
8/20/2026 GTS Securities LLC20,087$3.17M0.1%N/A0.004%
8/20/2026 Flputnam Investment Management Co.18,959$3.00M0.0%-0.5%0.004%
8/20/2026 Northwestern Mutual Wealth Management Co.381,117$60.23M0.0%+10.3%0.076%
8/20/2026 Private Management Group Inc.1,486$235K0.0%+6.4%0.000%
8/20/2026 Van Den Berg Management I Inc.3,537$559K0.1%-3.0%0.001%
8/20/2026 Wedbush Securities Inc.12,955$2.05M0.1%+8.0%0.003%
8/19/2026 Capital Advisors Inc. OK14,466$2.29M0.0%-0.5%0.003%
8/19/2026 Trustmark Bank Trust Department123,362$19.50M1.2%-0.5%0.025%
8/19/2026 UBS AM a distinct business unit of UBS ASSET MANAGEMENT AMERICAS LLC210,285$33.23M0.0%-5.8%0.042%
8/19/2026 Investors Asset Management of Georgia Inc. GA ADV17,593$2.78M1.0%+9.3%0.004%
8/19/2026 Tandem Capital Management Corp ADV1,370$217K0.1%N/A0.000%
8/19/2026 Wellington Management Group LLP67,361$10.65M0.0%-55.0%0.013%
8/18/2026 49 Wealth Management LLC1,302$206K0.0%-45.9%0.000%
8/18/2026 Rakuten Investment Management Inc.1,695,054$268.58M0.8%-40.3%0.339%
8/18/2026 Leo H. Evart Inc.3,295$521K0.4%+9.7%0.001%
Iran War Shock: What I Was Told In That Private Meeting (Ad)

You’re Being LIED To About The Iran War Forget EVERYTHING you’ve heard about the Iran war. Especially the reasons why we’re bombing the country.tc pixel

8/18/2026 Maxele Advisors LLC2,082$329K0.2%N/A0.000%
8/18/2026 Empowered Funds LLC9,874$1.56M0.0%N/A0.002%
8/18/2026 Hayek Kallen Investment Management26,407$4.17M1.3%+17.5%0.005%
8/18/2026 Asset Allocation Strategies LLC104,832$16.57M2.6%+7.1%0.021%
8/18/2026 Reality Financial Planning Services LLC108,910$17.21M16.6%-7.4%0.022%
8/17/2026 Strive Financial Group LLC1,676$265K0.1%+29.1%0.000%
8/17/2026 Pure Financial Advisors LLC3,455$546K0.0%-3.2%0.001%
8/17/2026 Perennial Investment Advisors LLC6,574$1.04M0.1%+48.1%0.001%
8/15/2026 Gallagher Fiduciary Advisors LLC59,954$9.48M0.3%-99.3%0.012%
8/15/2026 Pointe Capital Management LLC98,634$15.59M7.0%+1.1%0.020%


VYM Institutional Ownership - Frequently Asked Questions

During the previous two years, 2,153 institutional investors and hedge funds held shares of Vanguard High Dividend Yield ETF. The most heavily invested institutionals were Auto Owners Insurance Co ($21.33B), Bank of America Corp DE ($1.89B), Morgan Stanley ($1.46B), Raymond James Financial Inc. ($1.11B), LPL Financial LLC ($978.82M), Wells Fargo & Company MN ($790.26M), and JPMorgan Chase & Co. ($769.70M).Learn more on Vanguard High Dividend Yield ETF's institutional investors.

Of the 1,845 institutional investors that purchased Vanguard High Dividend Yield ETF's stock in the last 24 months, the following investors and hedge funds have bought the highest volume of shares: Auto Owners Insurance Co ($148.32M), Gallagher Fiduciary Advisors LLC ($7.92M), Raymond James Financial Inc. ($7.77M), JPMorgan Chase & Co. ($3.40M), Kingstone Capital Partners Texas LLC ($2.75M), Bank of America Corp DE ($2.64M), and Vantagepoint Investment Advisers LLC ($2.31M).

Institutional investors have bought a total of 170,129,169 shares in the last 24 months. This purchase volume represents approximately $24.43B in transactions.

Of the 864 institutional investors that sold Vanguard High Dividend Yield ETF's stock in the last 24 months, the following investors and hedge funds have sold the highest volume of shares: Gallagher Fiduciary Advisors LLC ($8.75M), The Manufacturers Life Insurance Company ($2.61M), Envestnet Asset Management Inc. ($1.25M), Rakuten Investment Management Inc. ($1.14M), Wellington Management Group LLP ($643.15K), Bell Bank ($614.46K), and Cornerstone Planning Group LLC ($525.38K).

Institutional investors have sold a total of 20,628,637 shares in the last 24 months. This volume of shares sold represents approximately $3.10B in transactions.



Institutional ownership data for NYSEARCA:VYM is compiled from quarterly 13F filings submitted to the U.S. Securities and Exchange Commission (SEC), with the most recent received on 9/4/2026. New 13F filings are added each quarter as they're published.
From Our Partners